sensor_id;sensor_type;location;lat;lon;timestamp;temperature;humidity
38684;DHT22;24910;53.248;-6.134;2022-11-25T00:02:07;9.60;86.80
38684;DHT22;24910;53.248;-6.134;2022-11-25T00:04:36;9.60;86.90
38684;DHT22;24910;53.248;-6.134;2022-11-25T00:07:05;9.60;86.90
38684;DHT22;24910;53.248;-6.134;2022-11-25T00:09:37;9.60;86.90
38684;DHT22;24910;53.248;-6.134;2022-11-25T00:12:06;9.60;86.90
38684;DHT22;24910;53.248;-6.134;2022-11-25T00:14:35;9.60;86.80
38684;DHT22;24910;53.248;-6.134;2022-11-25T00:17:06;9.60;86.80
38684;DHT22;24910;53.248;-6.134;2022-11-25T00:19:37;9.60;86.70
38684;DHT22;24910;53.248;-6.134;2022-11-25T00:22:06;9.50;86.60
38684;DHT22;24910;53.248;-6.134;2022-11-25T00:24:35;9.60;86.60
38684;DHT22;24910;53.248;-6.134;2022-11-25T00:27:04;9.60;86.50
38684;DHT22;24910;53.248;-6.134;2022-11-25T00:29:34;9.60;86.30
38684;DHT22;24910;53.248;-6.134;2022-11-25T00:32:03;9.60;86.20
38684;DHT22;24910;53.248;-6.134;2022-11-25T00:34:34;9.60;86.10
38684;DHT22;24910;53.248;-6.134;2022-11-25T00:37:03;9.60;86.00
38684;DHT22;24910;53.248;-6.134;2022-11-25T00:39:32;9.60;86.00
38684;DHT22;24910;53.248;-6.134;2022-11-25T00:42:01;9.50;86.00
38684;DHT22;24910;53.248;-6.134;2022-11-25T00:44:47;9.50;86.00
38684;DHT22;24910;53.248;-6.134;2022-11-25T00:47:17;9.50;86.90
38684;DHT22;24910;53.248;-6.134;2022-11-25T00:49:49;9.50;85.90
38684;DHT22;24910;53.248;-6.134;2022-11-25T00:52:22;9.50;85.90
38684;DHT22;24910;53.248;-6.134;2022-11-25T00:54:52;9.50;85.90
38684;DHT22;24910;53.248;-6.134;2022-11-25T00:57:22;9.50;86.00
38684;DHT22;24910;53.248;-6.134;2022-11-25T00:59:52;9.40;86.10
38684;DHT22;24910;53.248;-6.134;2022-11-25T01:02:21;9.40;86.20
38684;DHT22;24910;53.248;-6.134;2022-11-25T01:04:52;9.40;86.10
38684;DHT22;24910;53.248;-6.134;2022-11-25T01:07:21;9.50;86.20
38684;DHT22;24910;53.248;-6.134;2022-11-25T01:09:50;9.40;86.20
38684;DHT22;24910;53.248;-6.134;2022-11-25T01:12:19;9.40;86.30
38684;DHT22;24910;53.248;-6.134;2022-11-25T01:14:51;9.40;86.40
38684;DHT22;24910;53.248;-6.134;2022-11-25T01:17:20;9.40;86.40
38684;DHT22;24910;53.248;-6.134;2022-11-25T01:19:49;9.40;86.40
38684;DHT22;24910;53.248;-6.134;2022-11-25T01:22:21;9.40;86.50
38684;DHT22;24910;53.248;-6.134;2022-11-25T01:24:50;9.40;86.40
38684;DHT22;24910;53.248;-6.134;2022-11-25T01:27:20;9.40;86.40
38684;DHT22;24910;53.248;-6.134;2022-11-25T01:29:49;9.40;86.40
38684;DHT22;24910;53.248;-6.134;2022-11-25T01:32:18;9.40;86.40
38684;DHT22;24910;53.248;-6.134;2022-11-25T01:34:47;9.40;86.40
38684;DHT22;24910;53.248;-6.134;2022-11-25T01:37:16;9.40;86.40
38684;DHT22;24910;53.248;-6.134;2022-11-25T01:39:46;9.40;86.30
38684;DHT22;24910;53.248;-6.134;2022-11-25T01:42:16;9.40;86.30
38684;DHT22;24910;53.248;-6.134;2022-11-25T01:45:17;9.40;86.30
38684;DHT22;24910;53.248;-6.134;2022-11-25T01:47:59;9.40;86.40
38684;DHT22;24910;53.248;-6.134;2022-11-25T01:50:34;9.40;86.30
38684;DHT22;24910;53.248;-6.134;2022-11-25T01:53:09;9.40;86.40
38684;DHT22;24910;53.248;-6.134;2022-11-25T01:55:47;9.40;86.40
38684;DHT22;24910;53.248;-6.134;2022-11-25T01:58:19;9.40;86.40
38684;DHT22;24910;53.248;-6.134;2022-11-25T02:00:49;9.40;86.40
38684;DHT22;24910;53.248;-6.134;2022-11-25T02:03:21;9.40;86.40
38684;DHT22;24910;53.248;-6.134;2022-11-25T02:05:58;9.40;86.40
38684;DHT22;24910;53.248;-6.134;2022-11-25T02:08:32;9.40;86.40
38684;DHT22;24910;53.248;-6.134;2022-11-25T02:11:06;9.30;86.40
38684;DHT22;24910;53.248;-6.134;2022-11-25T02:13:36;9.30;86.40
38684;DHT22;24910;53.248;-6.134;2022-11-25T02:16:05;9.30;86.40
38684;DHT22;24910;53.248;-6.134;2022-11-25T02:18:34;9.40;86.40
38684;DHT22;24910;53.248;-6.134;2022-11-25T02:21:05;9.40;86.40
38684;DHT22;24910;53.248;-6.134;2022-11-25T02:23:38;9.40;86.30
38684;DHT22;24910;53.248;-6.134;2022-11-25T02:26:11;9.40;86.20
38684;DHT22;24910;53.248;-6.134;2022-11-25T02:28:41;9.40;86.20
38684;DHT22;24910;53.248;-6.134;2022-11-25T02:31:10;9.40;86.10
38684;DHT22;24910;53.248;-6.134;2022-11-25T02:33:39;9.40;86.10
38684;DHT22;24910;53.248;-6.134;2022-11-25T02:36:11;9.30;86.10
38684;DHT22;24910;53.248;-6.134;2022-11-25T02:38:43;9.30;86.10
38684;DHT22;24910;53.248;-6.134;2022-11-25T02:41:17;9.40;86.10
38684;DHT22;24910;53.248;-6.134;2022-11-25T02:43:52;9.30;86.00
38684;DHT22;24910;53.248;-6.134;2022-11-25T02:46:23;9.30;85.90
38684;DHT22;24910;53.248;-6.134;2022-11-25T02:48:54;9.40;85.90
38684;DHT22;24910;53.248;-6.134;2022-11-25T02:51:43;9.40;85.80
38684;DHT22;24910;53.248;-6.134;2022-11-25T02:54:13;9.40;85.70
38684;DHT22;24910;53.248;-6.134;2022-11-25T02:56:44;9.40;85.80
38684;DHT22;24910;53.248;-6.134;2022-11-25T02:59:14;9.40;85.80
38684;DHT22;24910;53.248;-6.134;2022-11-25T03:01:43;9.30;85.70
38684;DHT22;24910;53.248;-6.134;2022-11-25T03:04:12;9.30;85.70
38684;DHT22;24910;53.248;-6.134;2022-11-25T03:06:41;9.30;85.70
38684;DHT22;24910;53.248;-6.134;2022-11-25T03:09:10;9.30;85.80
38684;DHT22;24910;53.248;-6.134;2022-11-25T03:11:39;9.30;85.80
38684;DHT22;24910;53.248;-6.134;2022-11-25T03:14:27;9.20;85.80
38684;DHT22;24910;53.248;-6.134;2022-11-25T03:16:56;9.20;85.80
38684;DHT22;24910;53.248;-6.134;2022-11-25T03:19:27;9.30;85.80
38684;DHT22;24910;53.248;-6.134;2022-11-25T03:21:57;9.30;85.80
38684;DHT22;24910;53.248;-6.134;2022-11-25T03:24:26;9.20;85.80
38684;DHT22;24910;53.248;-6.134;2022-11-25T03:26:55;9.20;85.80
38684;DHT22;24910;53.248;-6.134;2022-11-25T03:29:24;9.20;85.80
38684;DHT22;24910;53.248;-6.134;2022-11-25T03:31:54;9.20;85.80
38684;DHT22;24910;53.248;-6.134;2022-11-25T03:34:23;9.20;85.80
38684;DHT22;24910;53.248;-6.134;2022-11-25T03:36:52;9.20;85.90
38684;DHT22;24910;53.248;-6.134;2022-11-25T03:39:25;9.20;85.90
38684;DHT22;24910;53.248;-6.134;2022-11-25T03:41:55;9.10;85.90
38684;DHT22;24910;53.248;-6.134;2022-11-25T03:44:24;9.20;86.00
38684;DHT22;24910;53.248;-6.134;2022-11-25T03:46:54;9.20;86.10
38684;DHT22;24910;53.248;-6.134;2022-11-25T03:49:23;9.20;86.10
38684;DHT22;24910;53.248;-6.134;2022-11-25T03:51:54;9.20;86.10
38684;DHT22;24910;53.248;-6.134;2022-11-25T03:54:23;9.20;86.10
38684;DHT22;24910;53.248;-6.134;2022-11-25T03:57:10;9.20;86.10
38684;DHT22;24910;53.248;-6.134;2022-11-25T03:59:39;9.20;85.90
38684;DHT22;24910;53.248;-6.134;2022-11-25T04:02:10;9.20;86.00
38684;DHT22;24910;53.248;-6.134;2022-11-25T04:04:41;9.20;86.10
38684;DHT22;24910;53.248;-6.134;2022-11-25T04:07:11;9.20;86.10
38684;DHT22;24910;53.248;-6.134;2022-11-25T04:09:40;9.20;86.10
38684;DHT22;24910;53.248;-6.134;2022-11-25T04:12:11;9.20;86.10
38684;DHT22;24910;53.248;-6.134;2022-11-25T04:15:04;9.20;86.10
38684;DHT22;24910;53.248;-6.134;2022-11-25T04:17:35;9.20;86.10
38684;DHT22;24910;53.248;-6.134;2022-11-25T04:20:07;9.20;86.00
38684;DHT22;24910;53.248;-6.134;2022-11-25T04:22:36;9.20;86.00
38684;DHT22;24910;53.248;-6.134;2022-11-25T04:25:08;9.20;86.10
38684;DHT22;24910;53.248;-6.134;2022-11-25T04:27:37;9.20;86.20
38684;DHT22;24910;53.248;-6.134;2022-11-25T04:30:08;9.20;86.10
38684;DHT22;24910;53.248;-6.134;2022-11-25T04:32:57;9.20;86.00
38684;DHT22;24910;53.248;-6.134;2022-11-25T04:35:51;9.10;86.00
38684;DHT22;24910;53.248;-6.134;2022-11-25T04:38:33;9.10;86.00
38684;DHT22;24910;53.248;-6.134;2022-11-25T04:41:22;9.10;86.10
38684;DHT22;24910;53.248;-6.134;2022-11-25T04:43:51;9.10;86.00
38684;DHT22;24910;53.248;-6.134;2022-11-25T04:46:22;9.10;86.00
38684;DHT22;24910;53.248;-6.134;2022-11-25T04:48:56;9.10;86.00
38684;DHT22;24910;53.248;-6.134;2022-11-25T04:51:25;9.10;85.90
38684;DHT22;24910;53.248;-6.134;2022-11-25T04:53:59;9.10;86.00
38684;DHT22;24910;53.248;-6.134;2022-11-25T04:56:28;9.10;86.00
38684;DHT22;24910;53.248;-6.134;2022-11-25T04:58:59;9.10;86.10
38684;DHT22;24910;53.248;-6.134;2022-11-25T05:01:47;9.10;86.10
38684;DHT22;24910;53.248;-6.134;2022-11-25T05:04:38;9.10;86.10
38684;DHT22;24910;53.248;-6.134;2022-11-25T05:07:09;9.10;86.10
38684;DHT22;24910;53.248;-6.134;2022-11-25T05:09:39;9.10;86.10
38684;DHT22;24910;53.248;-6.134;2022-11-25T05:12:28;9.10;86.00
38684;DHT22;24910;53.248;-6.134;2022-11-25T05:14:58;9.10;85.80
38684;DHT22;24910;53.248;-6.134;2022-11-25T05:17:29;9.00;85.70
38684;DHT22;24910;53.248;-6.134;2022-11-25T05:20:00;9.00;85.70
38684;DHT22;24910;53.248;-6.134;2022-11-25T05:22:33;9.00;85.80
38684;DHT22;24910;53.248;-6.134;2022-11-25T05:25:05;9.00;85.80
38684;DHT22;24910;53.248;-6.134;2022-11-25T05:27:39;9.00;85.70
38684;DHT22;24910;53.248;-6.134;2022-11-25T05:30:10;9.00;85.70
38684;DHT22;24910;53.248;-6.134;2022-11-25T05:32:40;9.00;85.60
38684;DHT22;24910;53.248;-6.134;2022-11-25T05:35:12;9.00;85.60
38684;DHT22;24910;53.248;-6.134;2022-11-25T05:37:43;9.00;85.60
38684;DHT22;24910;53.248;-6.134;2022-11-25T05:40:13;9.00;85.50
38684;DHT22;24910;53.248;-6.134;2022-11-25T05:43:03;9.00;85.60
38684;DHT22;24910;53.248;-6.134;2022-11-25T05:45:37;9.00;85.50
38684;DHT22;24910;53.248;-6.134;2022-11-25T05:48:08;9.00;85.50
38684;DHT22;24910;53.248;-6.134;2022-11-25T05:50:39;9.00;85.50
38684;DHT22;24910;53.248;-6.134;2022-11-25T05:53:21;9.00;85.50
38684;DHT22;24910;53.248;-6.134;2022-11-25T05:55:53;9.00;85.40
38684;DHT22;24910;53.248;-6.134;2022-11-25T05:58:40;9.00;85.40
38684;DHT22;24910;53.248;-6.134;2022-11-25T06:01:12;9.00;85.30
38684;DHT22;24910;53.248;-6.134;2022-11-25T06:03:41;9.00;85.30
38684;DHT22;24910;53.248;-6.134;2022-11-25T06:06:12;9.00;85.20
38684;DHT22;24910;53.248;-6.134;2022-11-25T06:08:54;9.00;85.30
38684;DHT22;24910;53.248;-6.134;2022-11-25T06:11:26;9.00;85.20
38684;DHT22;24910;53.248;-6.134;2022-11-25T06:14:11;9.00;85.20
38684;DHT22;24910;53.248;-6.134;2022-11-25T06:16:41;9.00;86.10
38684;DHT22;24910;53.248;-6.134;2022-11-25T06:19:38;9.00;85.20
38684;DHT22;24910;53.248;-6.134;2022-11-25T06:22:09;9.00;85.30
38684;DHT22;24910;53.248;-6.134;2022-11-25T06:24:38;9.00;85.30
38684;DHT22;24910;53.248;-6.134;2022-11-25T06:27:09;9.00;85.40
38684;DHT22;24910;53.248;-6.134;2022-11-25T06:29:39;9.00;85.40
38684;DHT22;24910;53.248;-6.134;2022-11-25T06:32:08;9.00;85.50
38684;DHT22;24910;53.248;-6.134;2022-11-25T06:34:37;9.00;85.50
38684;DHT22;24910;53.248;-6.134;2022-11-25T06:37:35;9.00;85.50
38684;DHT22;24910;53.248;-6.134;2022-11-25T06:40:06;9.00;85.60
38684;DHT22;24910;53.248;-6.134;2022-11-25T06:42:37;9.00;85.60
38684;DHT22;24910;53.248;-6.134;2022-11-25T06:45:07;9.00;85.70
38684;DHT22;24910;53.248;-6.134;2022-11-25T06:47:36;9.00;85.70
38684;DHT22;24910;53.248;-6.134;2022-11-25T06:50:07;9.10;86.60
38684;DHT22;24910;53.248;-6.134;2022-11-25T06:52:37;9.10;85.80
38684;DHT22;24910;53.248;-6.134;2022-11-25T06:55:07;9.10;85.80
38684;DHT22;24910;53.248;-6.134;2022-11-25T06:57:36;9.10;85.80
38684;DHT22;24910;53.248;-6.134;2022-11-25T07:00:10;9.10;85.80
38684;DHT22;24910;53.248;-6.134;2022-11-25T07:02:40;9.10;85.90
38684;DHT22;24910;53.248;-6.134;2022-11-25T07:05:15;9.10;86.70
38684;DHT22;24910;53.248;-6.134;2022-11-25T07:07:45;9.10;85.70
38684;DHT22;24910;53.248;-6.134;2022-11-25T07:10:14;9.20;85.80
38684;DHT22;24910;53.248;-6.134;2022-11-25T07:12:44;9.10;85.80
38684;DHT22;24910;53.248;-6.134;2022-11-25T07:15:13;9.10;86.70
38684;DHT22;24910;53.248;-6.134;2022-11-25T07:17:42;9.20;85.90
38684;DHT22;24910;53.248;-6.134;2022-11-25T07:20:12;9.20;85.90
38684;DHT22;24910;53.248;-6.134;2022-11-25T07:22:41;9.20;85.80
38684;DHT22;24910;53.248;-6.134;2022-11-25T07:25:13;9.20;85.80
38684;DHT22;24910;53.248;-6.134;2022-11-25T07:27:42;9.20;85.80
38684;DHT22;24910;53.248;-6.134;2022-11-25T07:30:12;9.20;85.70
38684;DHT22;24910;53.248;-6.134;2022-11-25T07:33:01;9.20;85.70
38684;DHT22;24910;53.248;-6.134;2022-11-25T07:35:30;9.20;86.60
38684;DHT22;24910;53.248;-6.134;2022-11-25T07:37:59;9.20;85.70
38684;DHT22;24910;53.248;-6.134;2022-11-25T07:40:30;9.20;85.80
38684;DHT22;24910;53.248;-6.134;2022-11-25T07:42:59;9.20;85.90
38684;DHT22;24910;53.248;-6.134;2022-11-25T07:45:28;9.20;85.90
38684;DHT22;24910;53.248;-6.134;2022-11-25T07:48:08;9.20;86.80
38684;DHT22;24910;53.248;-6.134;2022-11-25T07:50:37;9.20;86.00
38684;DHT22;24910;53.248;-6.134;2022-11-25T07:53:06;9.20;86.00
38684;DHT22;24910;53.248;-6.134;2022-11-25T07:55:37;9.20;86.10
38684;DHT22;24910;53.248;-6.134;2022-11-25T07:58:06;9.20;86.10
38684;DHT22;24910;53.248;-6.134;2022-11-25T08:00:35;9.20;86.20
38684;DHT22;24910;53.248;-6.134;2022-11-25T08:03:04;9.30;86.30
38684;DHT22;24910;53.248;-6.134;2022-11-25T08:05:33;9.30;86.30
38684;DHT22;24910;53.248;-6.134;2022-11-25T08:08:02;9.30;86.30
38684;DHT22;24910;53.248;-6.134;2022-11-25T08:10:31;9.30;86.30
38684;DHT22;24910;53.248;-6.134;2022-11-25T08:13:02;9.30;86.50
38684;DHT22;24910;53.248;-6.134;2022-11-25T08:15:31;9.40;86.60
38684;DHT22;24910;53.248;-6.134;2022-11-25T08:18:01;9.30;86.60
38684;DHT22;24910;53.248;-6.134;2022-11-25T08:20:30;9.40;86.80
38684;DHT22;24910;53.248;-6.134;2022-11-25T08:22:59;9.40;86.90
38684;DHT22;24910;53.248;-6.134;2022-11-25T08:25:28;9.40;87.00
38684;DHT22;24910;53.248;-6.134;2022-11-25T08:27:58;9.40;87.00
38684;DHT22;24910;53.248;-6.134;2022-11-25T08:30:31;9.40;87.00
38684;DHT22;24910;53.248;-6.134;2022-11-25T08:33:00;9.40;87.00
38684;DHT22;24910;53.248;-6.134;2022-11-25T08:35:31;9.50;87.20
38684;DHT22;24910;53.248;-6.134;2022-11-25T08:38:04;9.50;87.10
38684;DHT22;24910;53.248;-6.134;2022-11-25T08:40:35;9.50;87.20
38684;DHT22;24910;53.248;-6.134;2022-11-25T08:43:04;9.50;87.10
38684;DHT22;24910;53.248;-6.134;2022-11-25T08:45:35;9.60;87.20
38684;DHT22;24910;53.248;-6.134;2022-11-25T08:48:05;9.60;87.20
38684;DHT22;24910;53.248;-6.134;2022-11-25T08:50:34;9.60;87.20
38684;DHT22;24910;53.248;-6.134;2022-11-25T08:53:03;9.60;87.20
38684;DHT22;24910;53.248;-6.134;2022-11-25T08:55:32;9.70;87.20
38684;DHT22;24910;53.248;-6.134;2022-11-25T08:58:03;9.70;87.20
38684;DHT22;24910;53.248;-6.134;2022-11-25T09:00:38;9.70;87.30
38684;DHT22;24910;53.248;-6.134;2022-11-25T09:03:08;9.80;87.40
38684;DHT22;24910;53.248;-6.134;2022-11-25T09:05:39;9.80;87.20
38684;DHT22;24910;53.248;-6.134;2022-11-25T09:08:09;9.80;87.20
38684;DHT22;24910;53.248;-6.134;2022-11-25T09:10:39;9.90;87.20
38684;DHT22;24910;53.248;-6.134;2022-11-25T09:13:08;9.90;87.30
38684;DHT22;24910;53.248;-6.134;2022-11-25T09:15:39;9.90;87.40
38684;DHT22;24910;53.248;-6.134;2022-11-25T09:18:09;10.00;87.40
38684;DHT22;24910;53.248;-6.134;2022-11-25T09:20:39;10.00;87.40
38684;DHT22;24910;53.248;-6.134;2022-11-25T09:23:08;10.10;87.30
38684;DHT22;24910;53.248;-6.134;2022-11-25T09:25:37;10.20;87.30
38684;DHT22;24910;53.248;-6.134;2022-11-25T09:28:06;10.30;87.20
38684;DHT22;24910;53.248;-6.134;2022-11-25T09:30:36;10.30;87.20
38684;DHT22;24910;53.248;-6.134;2022-11-25T09:33:07;10.40;87.10
38684;DHT22;24910;53.248;-6.134;2022-11-25T09:35:37;10.50;87.10
38684;DHT22;24910;53.248;-6.134;2022-11-25T09:38:06;10.50;87.00
38684;DHT22;24910;53.248;-6.134;2022-11-25T09:40:44;10.60;86.90
38684;DHT22;24910;53.248;-6.134;2022-11-25T09:43:24;10.70;86.80
38684;DHT22;24910;53.248;-6.134;2022-11-25T09:46:28;10.70;86.70
38684;DHT22;24910;53.248;-6.134;2022-11-25T09:49:33;10.80;86.60
38684;DHT22;24910;53.248;-6.134;2022-11-25T09:52:13;10.80;86.50
38684;DHT22;24910;53.248;-6.134;2022-11-25T09:54:51;10.90;86.40
38684;DHT22;24910;53.248;-6.134;2022-11-25T09:57:26;11.00;86.30
38684;DHT22;24910;53.248;-6.134;2022-11-25T10:00:04;11.00;86.20
38684;DHT22;24910;53.248;-6.134;2022-11-25T10:02:43;11.10;86.20
38684;DHT22;24910;53.248;-6.134;2022-11-25T10:05:18;11.10;86.00
38684;DHT22;24910;53.248;-6.134;2022-11-25T10:07:51;11.10;86.00
38684;DHT22;24910;53.248;-6.134;2022-11-25T10:10:25;11.20;86.10
38684;DHT22;24910;53.248;-6.134;2022-11-25T10:12:56;11.20;86.00
38684;DHT22;24910;53.248;-6.134;2022-11-25T10:15:28;11.20;85.90
38684;DHT22;24910;53.248;-6.134;2022-11-25T10:18:03;11.30;86.70
38684;DHT22;24910;53.248;-6.134;2022-11-25T10:20:37;11.30;85.80
38684;DHT22;24910;53.248;-6.134;2022-11-25T10:23:14;11.40;85.60
38684;DHT22;24910;53.248;-6.134;2022-11-25T10:25:45;11.50;85.60
38684;DHT22;24910;53.248;-6.134;2022-11-25T10:28:17;11.50;85.50
38684;DHT22;24910;53.248;-6.134;2022-11-25T10:30:50;11.60;85.40
38684;DHT22;24910;53.248;-6.134;2022-11-25T10:33:24;11.60;85.30
38684;DHT22;24910;53.248;-6.134;2022-11-25T10:35:57;11.70;85.20
38684;DHT22;24910;53.248;-6.134;2022-11-25T10:38:39;11.70;85.10
38684;DHT22;24910;53.248;-6.134;2022-11-25T10:41:12;11.70;85.00
38684;DHT22;24910;53.248;-6.134;2022-11-25T10:43:45;11.70;84.90
38684;DHT22;24910;53.248;-6.134;2022-11-25T10:46:22;11.80;84.90
38684;DHT22;24910;53.248;-6.134;2022-11-25T10:49:21;11.80;84.60
38684;DHT22;24910;53.248;-6.134;2022-11-25T10:51:54;11.90;84.60
38684;DHT22;24910;53.248;-6.134;2022-11-25T10:54:25;11.90;84.40
38684;DHT22;24910;53.248;-6.134;2022-11-25T10:56:56;11.90;84.30
38684;DHT22;24910;53.248;-6.134;2022-11-25T10:59:30;12.00;84.30
38684;DHT22;24910;53.248;-6.134;2022-11-25T11:02:14;12.00;84.20
38684;DHT22;24910;53.248;-6.134;2022-11-25T11:04:55;12.00;84.10
38684;DHT22;24910;53.248;-6.134;2022-11-25T11:07:27;12.00;84.00
38684;DHT22;24910;53.248;-6.134;2022-11-25T11:10:17;12.00;84.00
38684;DHT22;24910;53.248;-6.134;2022-11-25T11:12:55;12.10;83.90
38684;DHT22;24910;53.248;-6.134;2022-11-25T11:15:26;12.10;83.70
38684;DHT22;24910;53.248;-6.134;2022-11-25T11:17:57;12.10;83.70
38684;DHT22;24910;53.248;-6.134;2022-11-25T11:20:28;12.10;83.60
38684;DHT22;24910;53.248;-6.134;2022-11-25T11:23:04;12.20;83.60
38684;DHT22;24910;53.248;-6.134;2022-11-25T11:25:37;12.10;83.50
38684;DHT22;24910;53.248;-6.134;2022-11-25T11:28:24;12.10;84.40
38684;DHT22;24910;53.248;-6.134;2022-11-25T11:30:56;12.10;83.40
38684;DHT22;24910;53.248;-6.134;2022-11-25T11:33:34;12.10;83.30
38684;DHT22;24910;53.248;-6.134;2022-11-25T11:36:19;12.10;83.20
38684;DHT22;24910;53.248;-6.134;2022-11-25T11:39:00;12.10;83.10
38684;DHT22;24910;53.248;-6.134;2022-11-25T11:41:36;12.20;83.10
38684;DHT22;24910;53.248;-6.134;2022-11-25T11:44:15;12.10;82.90
38684;DHT22;24910;53.248;-6.134;2022-11-25T11:47:07;12.10;82.90
38684;DHT22;24910;53.248;-6.134;2022-11-25T11:52:40;12.20;82.90
38684;DHT22;24910;53.248;-6.134;2022-11-25T11:55:24;12.20;82.70
38684;DHT22;24910;53.248;-6.134;2022-11-25T11:58:01;12.20;82.60
38684;DHT22;24910;53.248;-6.134;2022-11-25T12:00:37;12.30;82.50
38684;DHT22;24910;53.248;-6.134;2022-11-25T12:03:13;12.30;82.40
38684;DHT22;24910;53.248;-6.134;2022-11-25T12:05:45;12.30;82.30
38684;DHT22;24910;53.248;-6.134;2022-11-25T12:08:26;12.30;82.20
38684;DHT22;24910;53.248;-6.134;2022-11-25T12:11:02;12.30;82.30
38684;DHT22;24910;53.248;-6.134;2022-11-25T12:13:36;12.30;82.30
38684;DHT22;24910;53.248;-6.134;2022-11-25T12:16:11;12.40;82.40
38684;DHT22;24910;53.248;-6.134;2022-11-25T12:18:48;12.40;82.20
38684;DHT22;24910;53.248;-6.134;2022-11-25T12:21:32;12.40;82.10
38684;DHT22;24910;53.248;-6.134;2022-11-25T12:24:16;12.40;81.90
38684;DHT22;24910;53.248;-6.134;2022-11-25T12:26:54;12.50;81.90
38684;DHT22;24910;53.248;-6.134;2022-11-25T12:29:30;12.40;81.80
38684;DHT22;24910;53.248;-6.134;2022-11-25T12:32:33;12.50;81.90
38684;DHT22;24910;53.248;-6.134;2022-11-25T12:35:15;12.40;81.80
38684;DHT22;24910;53.248;-6.134;2022-11-25T12:37:53;12.40;81.80
38684;DHT22;24910;53.248;-6.134;2022-11-25T12:40:30;12.50;81.80
38684;DHT22;24910;53.248;-6.134;2022-11-25T12:43:14;12.50;81.70
38684;DHT22;24910;53.248;-6.134;2022-11-25T12:45:45;12.50;81.70
38684;DHT22;24910;53.248;-6.134;2022-11-25T12:48:17;12.50;81.70
38684;DHT22;24910;53.248;-6.134;2022-11-25T12:50:54;12.50;81.70
38684;DHT22;24910;53.248;-6.134;2022-11-25T12:53:34;12.50;81.60
38684;DHT22;24910;53.248;-6.134;2022-11-25T12:56:13;12.50;81.60
38684;DHT22;24910;53.248;-6.134;2022-11-25T12:58:57;12.50;81.60
38684;DHT22;24910;53.248;-6.134;2022-11-25T13:01:44;12.50;81.50
38684;DHT22;24910;53.248;-6.134;2022-11-25T13:04:39;12.40;81.40
38684;DHT22;24910;53.248;-6.134;2022-11-25T13:07:24;12.40;81.40
38684;DHT22;24910;53.248;-6.134;2022-11-25T13:13:23;12.40;81.50
38684;DHT22;24910;53.248;-6.134;2022-11-25T13:15:57;12.40;81.30
38684;DHT22;24910;53.248;-6.134;2022-11-25T13:18:30;12.40;81.30
38684;DHT22;24910;53.248;-6.134;2022-11-25T13:21:07;12.40;81.30
38684;DHT22;24910;53.248;-6.134;2022-11-25T13:23:51;12.40;81.20
38684;DHT22;24910;53.248;-6.134;2022-11-25T13:32:33;12.40;81.10
38684;DHT22;24910;53.248;-6.134;2022-11-25T13:37:59;12.30;81.10
38684;DHT22;24910;53.248;-6.134;2022-11-25T13:40:38;12.30;81.20
38684;DHT22;24910;53.248;-6.134;2022-11-25T13:43:19;12.30;81.20
38684;DHT22;24910;53.248;-6.134;2022-11-25T13:45:49;12.40;81.40
38684;DHT22;24910;53.248;-6.134;2022-11-25T13:48:23;12.40;81.40
38684;DHT22;24910;53.248;-6.134;2022-11-25T13:51:14;12.50;81.50
38684;DHT22;24910;53.248;-6.134;2022-11-25T13:53:50;12.50;81.60
38684;DHT22;24910;53.248;-6.134;2022-11-25T13:56:27;12.50;81.60
38684;DHT22;24910;53.248;-6.134;2022-11-25T14:02:30;12.50;81.50
38684;DHT22;24910;53.248;-6.134;2022-11-25T14:05:23;12.50;81.60
38684;DHT22;24910;53.248;-6.134;2022-11-25T14:08:09;12.50;81.70
38684;DHT22;24910;53.248;-6.134;2022-11-25T14:10:44;12.40;81.70
38684;DHT22;24910;53.248;-6.134;2022-11-25T14:16:25;12.40;81.80
38684;DHT22;24910;53.248;-6.134;2022-11-25T14:19:46;12.40;81.70
38684;DHT22;24910;53.248;-6.134;2022-11-25T14:22:46;12.40;81.60
38684;DHT22;24910;53.248;-6.134;2022-11-25T14:25:26;12.40;81.50
38684;DHT22;24910;53.248;-6.134;2022-11-25T14:28:09;12.40;81.50
38684;DHT22;24910;53.248;-6.134;2022-11-25T14:30:46;12.50;81.40
38684;DHT22;24910;53.248;-6.134;2022-11-25T14:33:24;12.50;81.40
38684;DHT22;24910;53.248;-6.134;2022-11-25T14:36:02;12.50;81.30
38684;DHT22;24910;53.248;-6.134;2022-11-25T14:38:39;12.50;81.20
38684;DHT22;24910;53.248;-6.134;2022-11-25T14:41:14;12.50;81.20
38684;DHT22;24910;53.248;-6.134;2022-11-25T14:43:47;12.50;81.10
38684;DHT22;24910;53.248;-6.134;2022-11-25T14:46:20;12.50;81.00
38684;DHT22;24910;53.248;-6.134;2022-11-25T14:48:51;12.50;80.90
38684;DHT22;24910;53.248;-6.134;2022-11-25T14:51:21;12.50;80.80
38684;DHT22;24910;53.248;-6.134;2022-11-25T14:53:54;12.50;80.80
38684;DHT22;24910;53.248;-6.134;2022-11-25T14:56:26;12.40;80.60
38684;DHT22;24910;53.248;-6.134;2022-11-25T14:58:57;12.40;80.50
38684;DHT22;24910;53.248;-6.134;2022-11-25T15:01:28;12.40;80.40
38684;DHT22;24910;53.248;-6.134;2022-11-25T15:04:14;12.40;80.40
38684;DHT22;24910;53.248;-6.134;2022-11-25T15:06:48;12.30;80.30
38684;DHT22;24910;53.248;-6.134;2022-11-25T15:09:21;12.30;80.40
38684;DHT22;24910;53.248;-6.134;2022-11-25T15:11:54;12.20;80.40
38684;DHT22;24910;53.248;-6.134;2022-11-25T15:14:27;12.20;80.40
38684;DHT22;24910;53.248;-6.134;2022-11-25T15:16:57;12.10;80.30
38684;DHT22;24910;53.248;-6.134;2022-11-25T15:19:30;12.10;80.40
38684;DHT22;24910;53.248;-6.134;2022-11-25T15:22:04;12.10;80.30
38684;DHT22;24910;53.248;-6.134;2022-11-25T15:24:53;12.10;80.20
38684;DHT22;24910;53.248;-6.134;2022-11-25T15:27:24;12.00;80.00
38684;DHT22;24910;53.248;-6.134;2022-11-25T15:29:55;11.90;79.90
38684;DHT22;24910;53.248;-6.134;2022-11-25T15:32:25;11.90;79.90
38684;DHT22;24910;53.248;-6.134;2022-11-25T15:34:57;11.90;80.00
38684;DHT22;24910;53.248;-6.134;2022-11-25T15:37:27;11.90;79.90
38684;DHT22;24910;53.248;-6.134;2022-11-25T15:40:33;11.80;79.80
38684;DHT22;24910;53.248;-6.134;2022-11-25T15:43:06;11.80;79.80
38684;DHT22;24910;53.248;-6.134;2022-11-25T15:45:49;11.80;79.80
38684;DHT22;24910;53.248;-6.134;2022-11-25T15:48:23;11.80;80.70
38684;DHT22;24910;53.248;-6.134;2022-11-25T15:51:00;11.80;79.90
38684;DHT22;24910;53.248;-6.134;2022-11-25T15:53:31;11.70;79.80
38684;DHT22;24910;53.248;-6.134;2022-11-25T15:56:08;11.70;79.80
38684;DHT22;24910;53.248;-6.134;2022-11-25T15:58:41;11.70;80.00
38684;DHT22;24910;53.248;-6.134;2022-11-25T16:01:20;11.70;80.00
38684;DHT22;24910;53.248;-6.134;2022-11-25T16:03:50;11.70;80.10
38684;DHT22;24910;53.248;-6.134;2022-11-25T16:06:21;11.60;80.10
38684;DHT22;24910;53.248;-6.134;2022-11-25T16:08:52;11.60;80.20
38684;DHT22;24910;53.248;-6.134;2022-11-25T16:11:24;11.60;80.20
38684;DHT22;24910;53.248;-6.134;2022-11-25T16:14:16;11.60;80.30
38684;DHT22;24910;53.248;-6.134;2022-11-25T16:16:46;11.60;80.40
38684;DHT22;24910;53.248;-6.134;2022-11-25T16:19:16;11.50;80.30
38684;DHT22;24910;53.248;-6.134;2022-11-25T16:21:55;11.60;80.40
38684;DHT22;24910;53.248;-6.134;2022-11-25T16:24:33;11.50;80.20
38684;DHT22;24910;53.248;-6.134;2022-11-25T16:27:12;11.60;80.20
38684;DHT22;24910;53.248;-6.134;2022-11-25T16:29:52;11.50;80.10
38684;DHT22;24910;53.248;-6.134;2022-11-25T16:32:22;11.50;80.10